createdAt,value
2017-04-04T00:00:42.850Z,0
2017-04-04T00:01:42.836Z,0
2017-04-04T00:02:42.818Z,0
2017-04-04T00:03:42.803Z,0
2017-04-04T00:04:42.487Z,0
2017-04-04T00:05:42.770Z,0
2017-04-04T00:06:42.761Z,0
2017-04-04T00:07:42.743Z,0
2017-04-04T00:08:42.726Z,0
2017-04-04T00:09:42.710Z,0
2017-04-04T00:10:42.692Z,0
2017-04-04T00:11:42.382Z,0
2017-04-04T00:12:42.655Z,0
2017-04-04T00:13:42.641Z,0
2017-04-04T00:14:42.776Z,0
2017-04-04T00:15:42.614Z,0
2017-04-04T00:16:42.599Z,0
2017-04-04T00:17:42.576Z,0
2017-04-04T00:18:42.566Z,0
2017-04-04T00:19:42.247Z,0
2017-04-04T00:20:42.532Z,0
2017-04-04T00:21:42.518Z,0
2017-04-04T00:22:42.499Z,0
2017-04-04T00:23:42.479Z,0
2017-04-04T00:24:42.466Z,0
2017-04-04T00:25:42.450Z,0
2017-04-04T00:26:42.435Z,0
2017-04-04T00:27:42.419Z,0
2017-04-04T00:28:42.102Z,0
2017-04-04T00:29:42.389Z,0
2017-04-04T00:30:42.417Z,0
2017-04-04T00:31:42.363Z,0
2017-04-04T00:32:42.333Z,0
2017-04-04T00:33:42.318Z,0
2017-04-04T00:34:42.307Z,0
2017-04-04T00:35:42.293Z,0
2017-04-04T00:36:42.274Z,0
2017-04-04T00:37:41.965Z,0
2017-04-04T00:38:41.944Z,0
2017-04-04T00:39:42.265Z,0
2017-04-04T00:40:42.207Z,0
2017-04-04T00:41:42.197Z,0
2017-04-04T00:42:42.174Z,0
2017-04-04T00:43:42.162Z,0
2017-04-04T00:44:42.146Z,0
2017-04-04T00:45:42.129Z,0
2017-04-04T00:46:42.114Z,0
2017-04-04T00:47:42.094Z,0
2017-04-04T00:48:42.082Z,0
2017-04-04T00:49:42.068Z,0
2017-04-04T00:50:42.046Z,0
2017-04-04T00:51:42.030Z,0
2017-04-04T00:52:42.067Z,0
2017-04-04T00:53:41.997Z,0
2017-04-04T00:54:41.981Z,0
2017-04-04T00:55:41.968Z,0
2017-04-04T00:56:41.954Z,0
2017-04-04T00:57:41.939Z,0
2017-04-04T00:58:41.921Z,0
2017-04-04T00:59:41.911Z,0
2017-04-04T01:00:41.899Z,0
2017-04-04T01:01:41.877Z,0
2017-04-04T01:02:41.859Z,0
2017-04-04T01:03:41.847Z,0
2017-04-04T01:04:41.833Z,0
2017-04-04T01:05:41.511Z,0
2017-04-04T01:06:41.801Z,0
2017-04-04T01:07:41.481Z,0
2017-04-04T01:08:41.764Z,0
2017-04-04T01:09:41.755Z,0
2017-04-04T01:10:41.735Z,0
2017-04-04T01:11:41.729Z,0
2017-04-04T01:12:41.701Z,0
2017-04-04T01:13:41.689Z,0
2017-04-04T01:14:41.672Z,0
2017-04-04T01:15:41.661Z,0
2017-04-04T01:16:41.651Z,0
2017-04-04T01:17:41.624Z,0
2017-04-04T01:18:41.613Z,0
2017-04-04T01:19:41.595Z,0
2017-04-04T01:20:41.584Z,0
2017-04-04T01:21:41.566Z,0
2017-04-04T01:22:41.550Z,0
2017-04-04T01:23:41.530Z,0
2017-04-04T01:24:41.518Z,0
2017-04-04T01:25:41.504Z,0
2017-04-04T01:26:41.484Z,0
2017-04-04T01:27:41.473Z,0
2017-04-04T01:28:41.149Z,0
2017-04-04T01:29:41.138Z,0
2017-04-04T01:30:41.426Z,0
2017-04-04T01:31:41.404Z,0
2017-04-04T01:32:41.395Z,0
2017-04-04T01:33:41.384Z,0
2017-04-04T01:34:41.358Z,0
2017-04-04T01:35:41.380Z,0
2017-04-04T01:36:41.323Z,0
2017-04-04T01:37:41.006Z,0
2017-04-04T01:38:41.350Z,0
2017-04-04T01:39:41.277Z,0
2017-04-04T01:40:41.263Z,0
2017-04-04T01:41:41.241Z,0
2017-04-04T01:42:41.224Z,0
2017-04-04T01:43:41.250Z,0
2017-04-04T01:44:41.195Z,0
2017-04-04T01:45:41.178Z,0
2017-04-04T01:46:41.268Z,0
2017-04-04T01:47:41.146Z,0
2017-04-04T01:48:41.130Z,0
2017-04-04T01:49:41.115Z,0
2017-04-04T01:50:41.101Z,0
2017-04-04T01:51:41.075Z,0
2017-04-04T01:52:41.061Z,0
2017-04-04T01:53:41.048Z,0
2017-04-04T01:54:41.029Z,0
2017-04-04T01:55:41.020Z,0
2017-04-04T01:56:41.001Z,0
2017-04-04T01:57:40.978Z,0
2017-04-04T01:58:40.974Z,0
2017-04-04T01:59:40.950Z,0
2017-04-04T02:00:40.938Z,0
2017-04-04T02:01:40.617Z,0
2017-04-04T02:02:40.902Z,0
2017-04-04T02:03:40.889Z,0
2017-04-04T02:04:40.869Z,0
2017-04-04T02:05:40.852Z,0
2017-04-04T02:06:40.841Z,0
2017-04-04T02:07:40.818Z,0
2017-04-04T02:08:40.503Z,0
2017-04-04T02:09:40.190Z,0
2017-04-04T02:10:40.778Z,0
2017-04-04T02:11:40.762Z,0
2017-04-04T02:12:40.741Z,0
2017-04-04T02:13:40.730Z,0
2017-04-04T02:14:40.718Z,0
2017-04-04T02:15:40.701Z,0
2017-04-04T02:16:40.679Z,0
2017-04-04T02:17:40.667Z,0
2017-04-04T02:18:40.644Z,0
2017-04-04T02:19:40.630Z,0
2017-04-04T02:20:40.314Z,0
2017-04-04T02:21:40.301Z,0
2017-04-04T02:22:40.589Z,0
2017-04-04T02:23:40.569Z,0
2017-04-04T02:24:40.554Z,0
2017-04-04T02:25:40.539Z,0
2017-04-04T02:26:40.524Z,0
2017-04-04T02:27:40.200Z,0
2017-04-04T02:28:40.491Z,0
2017-04-04T02:29:40.472Z,0
2017-04-04T02:30:40.456Z,0
2017-04-04T02:31:40.137Z,0
2017-04-04T02:32:40.424Z,0
2017-04-04T02:33:40.105Z,0
2017-04-04T02:34:40.396Z,0
2017-04-04T02:35:40.082Z,0
2017-04-04T02:36:40.059Z,0
2017-04-04T02:37:40.348Z,0
2017-04-04T02:38:40.330Z,0
2017-04-04T02:39:40.318Z,0
2017-04-04T02:40:40.305Z,0
2017-04-04T02:41:40.285Z,0
2017-04-04T02:42:39.964Z,0
2017-04-04T02:43:40.253Z,0
2017-04-04T02:44:40.237Z,0
2017-04-04T02:45:40.215Z,0
2017-04-04T02:46:39.903Z,0
2017-04-04T02:47:40.179Z,0
2017-04-04T02:48:40.168Z,0
2017-04-04T02:49:40.151Z,0
2017-04-04T02:50:40.135Z,0
2017-04-04T02:51:40.161Z,0
2017-04-04T02:52:40.098Z,0
2017-04-04T02:53:40.084Z,0
2017-04-04T02:54:40.071Z,0
2017-04-04T02:55:40.054Z,0
2017-04-04T02:56:40.042Z,0
2017-04-04T02:57:39.722Z,0
2017-04-04T02:58:40.003Z,0
2017-04-04T02:59:39.992Z,0
2017-04-04T03:00:39.980Z,0
2017-04-04T03:01:39.659Z,0
2017-04-04T03:02:39.941Z,0
2017-04-04T03:03:39.920Z,0
2017-04-04T03:04:39.912Z,0
2017-04-04T03:05:39.887Z,0
2017-04-04T03:06:39.876Z,0
2017-04-04T03:07:39.863Z,0
2017-04-04T03:08:39.840Z,0
2017-04-04T03:09:39.825Z,0
2017-04-04T03:10:39.809Z,0
2017-04-04T03:11:39.797Z,0
2017-04-04T03:12:39.771Z,0
2017-04-04T03:13:39.755Z,0
2017-04-04T03:14:39.743Z,0
2017-04-04T03:15:39.722Z,0
2017-04-04T03:16:39.705Z,0
2017-04-04T03:17:39.688Z,0
2017-04-04T03:18:39.680Z,0
2017-04-04T03:19:39.354Z,0
2017-04-04T03:20:39.643Z,0
2017-04-04T03:21:39.627Z,0
2017-04-04T03:22:39.609Z,0
2017-04-04T03:23:39.697Z,0
2017-04-04T03:24:39.580Z,0
2017-04-04T03:25:39.563Z,0
2017-04-04T03:26:39.547Z,0
2017-04-04T03:27:39.525Z,0
2017-04-04T03:28:39.507Z,0
2017-04-04T03:29:39.496Z,0
2017-04-04T03:30:39.481Z,0
2017-04-04T03:31:39.461Z,0
2017-04-04T03:32:39.446Z,0
2017-04-04T03:33:39.122Z,0
2017-04-04T03:34:39.412Z,0
2017-04-04T03:35:39.402Z,0
2017-04-04T03:36:39.382Z,0
2017-04-04T03:37:39.359Z,0
2017-04-04T03:38:39.339Z,0
2017-04-04T03:39:39.322Z,0
2017-04-04T03:40:39.318Z,0
2017-04-04T03:41:39.302Z,0
2017-04-04T03:42:39.318Z,0
2017-04-04T03:43:39.265Z,0
2017-04-04T03:44:38.939Z,0
2017-04-04T03:45:39.226Z,0
2017-04-04T03:46:39.214Z,0
2017-04-04T03:47:39.191Z,0
2017-04-04T03:48:39.175Z,0
2017-04-04T03:49:39.158Z,0
2017-04-04T03:50:39.148Z,0
2017-04-04T03:51:39.125Z,0
2017-04-04T03:52:39.116Z,0
2017-04-04T03:53:39.093Z,0
2017-04-04T03:54:39.076Z,0
2017-04-04T03:55:39.065Z,0
2017-04-04T03:56:39.042Z,0
2017-04-04T03:57:39.030Z,0
2017-04-04T03:58:39.013Z,0
2017-04-04T03:59:38.994Z,0
2017-04-04T04:00:38.974Z,0
2017-04-04T04:01:38.660Z,0
2017-04-04T04:02:38.939Z,0
2017-04-04T04:03:38.920Z,0
2017-04-04T04:04:38.911Z,0
2017-04-04T04:05:38.587Z,0
2017-04-04T04:06:38.572Z,0
2017-04-04T04:07:38.855Z,0
2017-04-04T04:08:38.836Z,0
2017-04-04T04:09:38.828Z,0
2017-04-04T04:10:38.806Z,0
2017-04-04T04:11:38.791Z,0
2017-04-04T04:12:38.768Z,0
2017-04-04T04:13:38.760Z,0
2017-04-04T04:14:38.741Z,0
2017-04-04T04:15:38.722Z,0
2017-04-04T04:16:38.704Z,0
2017-04-04T04:17:38.685Z,0
2017-04-04T04:18:38.672Z,0
2017-04-04T04:19:38.656Z,0
2017-04-04T04:20:38.635Z,0
2017-04-04T04:21:38.615Z,0
2017-04-04T04:22:38.598Z,0
2017-04-04T04:23:38.587Z,0
2017-04-04T04:24:38.265Z,0
2017-04-04T04:25:38.246Z,0
2017-04-04T04:26:38.533Z,4
2017-04-04T04:27:38.519Z,4
2017-04-04T04:28:38.507Z,0
2017-04-04T04:29:38.182Z,0
2017-04-04T04:30:38.465Z,4
2017-04-04T04:31:38.146Z,4
2017-04-04T04:32:38.440Z,4
2017-04-04T04:33:38.109Z,4
2017-04-04T04:34:38.397Z,4
2017-04-04T04:35:38.384Z,8
2017-04-04T04:36:38.366Z,8
2017-04-04T04:37:38.339Z,8
2017-04-04T04:38:38.328Z,8
2017-04-04T04:39:38.309Z,12
2017-04-04T04:40:38.288Z,12
2017-04-04T04:41:38.293Z,16
2017-04-04T04:42:38.258Z,16
2017-04-04T04:43:38.243Z,20
2017-04-04T04:44:38.225Z,24
2017-04-04T04:45:38.205Z,24
2017-04-04T04:46:38.188Z,32
2017-04-04T04:47:38.174Z,36
2017-04-04T04:48:38.156Z,40
2017-04-04T04:49:38.147Z,44
2017-04-04T04:50:38.121Z,48
2017-04-04T04:51:37.803Z,56
2017-04-04T04:52:38.085Z,68
2017-04-04T04:53:38.067Z,76
2017-04-04T04:54:38.047Z,88
2017-04-04T04:55:38.033Z,92
2017-04-04T04:56:38.013Z,100
2017-04-04T04:57:37.993Z,104
2017-04-04T04:58:37.978Z,108
2017-04-04T04:59:37.962Z,116
2017-04-04T05:00:37.645Z,120
2017-04-04T05:01:37.927Z,128
2017-04-04T05:02:37.905Z,144
2017-04-04T05:03:37.588Z,156
2017-04-04T05:04:37.883Z,160
2017-04-04T05:05:37.859Z,160
2017-04-04T05:06:37.839Z,160
2017-04-04T05:07:37.818Z,160
2017-04-04T05:08:37.840Z,168
2017-04-04T05:09:37.785Z,180
2017-04-04T05:10:37.763Z,192
2017-04-04T05:11:37.749Z,196
2017-04-04T05:12:37.433Z,200
2017-04-04T05:13:37.413Z,212
2017-04-04T05:14:37.699Z,220
2017-04-04T05:15:37.676Z,228
2017-04-04T05:16:37.358Z,236
2017-04-04T05:17:37.651Z,248
2017-04-04T05:18:37.627Z,260
2017-04-04T05:19:37.610Z,272
2017-04-04T05:20:37.592Z,292
2017-04-04T05:21:37.571Z,320
2017-04-04T05:22:37.564Z,344
2017-04-04T05:23:37.546Z,360
2017-04-04T05:24:37.531Z,372
2017-04-04T05:25:37.500Z,388
2017-04-04T05:26:37.196Z,416
2017-04-04T05:27:37.472Z,460
2017-04-04T05:28:37.449Z,500
2017-04-04T05:29:37.431Z,540
2017-04-04T05:30:37.415Z,572
2017-04-04T05:31:37.394Z,596
2017-04-04T05:32:37.384Z,628
2017-04-04T05:33:37.366Z,664
2017-04-04T05:34:37.344Z,708
2017-04-04T05:35:37.330Z,756
2017-04-04T05:36:37.011Z,784
2017-04-04T05:37:37.301Z,812
2017-04-04T05:38:37.284Z,840
2017-04-04T05:39:37.261Z,892
2017-04-04T05:40:37.242Z,940
2017-04-04T05:41:36.929Z,948
2017-04-04T05:42:37.207Z,932
2017-04-04T05:43:37.200Z,908
2017-04-04T05:44:36.874Z,904
2017-04-04T05:45:36.861Z,924
2017-04-04T05:46:37.147Z,956
2017-04-04T05:47:37.129Z,1004
2017-04-04T05:48:37.111Z,1052
2017-04-04T05:49:37.092Z,1120
2017-04-04T05:50:37.077Z,1164
2017-04-04T05:51:36.762Z,1188
2017-04-04T05:52:37.051Z,1220
2017-04-04T05:53:37.029Z,1308
2017-04-04T05:54:37.010Z,1452
2017-04-04T05:55:37.000Z,1580
2017-04-04T05:56:36.981Z,1680
2017-04-04T05:57:36.959Z,1772
2017-04-04T05:58:36.946Z,1860
2017-04-04T05:59:36.926Z,1916
2017-04-04T06:00:36.914Z,1960
2017-04-04T06:01:36.595Z,2040
2017-04-04T06:02:36.881Z,2072
2017-04-04T06:03:36.867Z,2164
2017-04-04T06:04:36.548Z,2320
2017-04-04T06:05:36.831Z,2440
2017-04-04T06:06:36.818Z,2580
2017-04-04T06:07:36.799Z,2684
2017-04-04T06:08:36.783Z,2760
2017-04-04T06:09:36.764Z,2872
2017-04-04T06:10:36.747Z,2960
2017-04-04T06:13:46.295Z,3248
2017-04-04T06:14:17.054Z,3316
2017-04-04T06:15:17.039Z,3432
2017-04-04T06:16:17.031Z,3388
2017-04-04T06:17:17.001Z,3496
2017-04-04T06:18:16.986Z,3640
2017-04-04T06:19:16.971Z,3764
2017-04-04T06:20:16.959Z,3872
2017-04-04T06:21:16.937Z,3820
2017-04-04T06:22:17.125Z,3920
2017-04-04T06:23:16.936Z,4032
2017-04-04T06:24:16.889Z,4244
2017-04-04T06:25:16.880Z,3928
2017-04-04T06:26:16.858Z,3820
2017-04-04T06:27:16.847Z,3656
2017-04-04T06:28:17.045Z,3560
2017-04-04T06:29:16.508Z,3404
2017-04-04T06:30:16.796Z,3296
2017-04-04T06:31:16.772Z,3320
2017-04-04T06:32:16.467Z,3360
2017-04-04T06:33:16.745Z,3392
2017-04-04T06:34:16.428Z,3380
2017-04-04T06:35:16.713Z,3396
2017-04-04T06:36:16.699Z,3460
2017-04-04T06:37:16.681Z,3648
2017-04-04T06:38:16.659Z,3752
2017-04-04T06:39:16.654Z,3952
2017-04-04T06:40:16.634Z,4108
2017-04-04T06:41:16.611Z,4296
2017-04-04T06:42:16.598Z,4428
2017-04-04T06:43:16.581Z,4568
2017-04-04T06:44:16.570Z,4672
2017-04-04T06:45:16.551Z,4668
2017-04-04T06:46:16.533Z,4744
2017-04-04T06:47:16.520Z,4788
2017-04-04T06:48:16.499Z,4996
2017-04-04T06:49:16.188Z,5424
2017-04-04T06:50:16.469Z,5296
2017-04-04T06:51:16.452Z,4836
2017-04-04T06:52:16.437Z,4608
2017-04-04T06:53:16.418Z,4668
2017-04-04T06:54:16.404Z,4808
2017-04-04T06:55:15.782Z,5272
2017-04-04T06:56:16.070Z,5964
2017-04-04T06:57:17.552Z,6108
2017-04-04T06:58:16.350Z,6368
2017-04-04T06:59:16.030Z,6596
2017-04-04T07:00:16.307Z,6588
2017-04-04T07:01:16.291Z,7840
2017-04-04T07:02:16.286Z,8092
2017-04-04T07:03:16.157Z,8380
2017-04-04T07:04:16.243Z,9032
2017-04-04T07:05:16.184Z,9972
2017-04-04T07:06:15.917Z,9856
2017-04-04T07:07:16.201Z,9116
2017-04-04T07:08:16.189Z,10188
2017-04-04T07:09:16.173Z,10888
2017-04-04T07:10:16.152Z,10936
2017-04-04T07:11:16.141Z,10344
2017-04-04T07:12:16.125Z,9032
2017-04-04T07:13:16.105Z,8076
2017-04-04T07:14:16.092Z,7292
2017-04-04T07:15:16.069Z,7588
2017-04-04T07:16:16.062Z,7456
2017-04-04T07:17:16.046Z,6760
2017-04-04T07:18:16.030Z,6916
2017-04-04T07:19:16.014Z,9020
2017-04-04T07:20:16.007Z,10308
2017-04-04T07:21:15.991Z,9392
2017-04-04T07:22:15.971Z,9520
2017-04-04T07:23:15.654Z,9464
2017-04-04T07:24:15.632Z,9140
2017-04-04T07:25:15.923Z,8960
2017-04-04T07:26:15.909Z,8228
2017-04-04T07:27:15.596Z,8180
2017-04-04T07:28:15.874Z,8108
2017-04-04T07:29:15.863Z,7676
2017-04-04T07:30:15.848Z,7004
2017-04-04T07:31:15.526Z,6616
2017-04-04T07:32:15.209Z,6504
2017-04-04T07:33:15.804Z,7508
2017-04-04T07:34:15.482Z,9236
2017-04-04T07:35:15.764Z,8484
2017-04-04T07:36:15.748Z,7368
2017-04-04T07:37:15.426Z,7776
2017-04-04T07:38:15.720Z,8428
2017-04-04T07:39:15.706Z,6532
2017-04-04T07:40:15.725Z,4268
2017-04-04T07:41:15.671Z,4952
2017-04-04T07:42:15.659Z,5700
2017-04-04T07:43:15.639Z,6760
2017-04-04T07:44:15.627Z,7956
2017-04-04T07:45:15.609Z,8892
2017-04-04T07:46:15.595Z,9268
2017-04-04T07:47:15.583Z,11888
2017-04-04T07:48:15.563Z,9244
2017-04-04T07:49:15.537Z,8012
2017-04-04T07:50:15.533Z,7340
2017-04-04T07:51:14.908Z,7712
2017-04-04T07:52:15.491Z,7916
2017-04-04T07:53:15.482Z,12812
2017-04-04T07:54:15.164Z,9916
2017-04-04T07:55:15.453Z,14560
2017-04-04T07:56:15.534Z,15808
2017-04-04T07:57:15.413Z,10944
2017-04-04T08:10:18.087Z,15284
2017-04-04T08:10:34.236Z,14352
2017-04-04T08:11:34.217Z,16140
2017-04-04T08:12:34.202Z,16504
2017-04-04T08:13:34.390Z,17856
2017-04-04T08:14:34.169Z,15264
2017-04-04T08:15:34.152Z,15340
2017-04-04T08:16:34.141Z,17072
2017-04-04T08:17:33.816Z,21504
2017-04-04T08:18:34.114Z,14996
2017-04-04T08:19:34.089Z,12408
2017-04-04T08:20:34.076Z,10908
2017-04-04T08:21:34.050Z,10612
2017-04-04T08:22:34.039Z,10108
2017-04-04T08:23:34.017Z,10120
2017-04-04T08:24:34.009Z,11344
2017-04-04T08:25:33.992Z,11616
2017-04-04T08:26:33.969Z,10744
2017-04-04T08:27:34.001Z,9872
2017-04-04T08:28:33.939Z,9264
2017-04-04T08:29:33.613Z,9568
2017-04-04T08:30:33.600Z,9804
2017-04-04T08:31:33.618Z,9852
2017-04-04T08:32:33.870Z,17568
2017-04-04T08:33:33.548Z,27008
2017-04-04T08:34:33.830Z,30080
2017-04-04T08:35:33.811Z,14784
2017-04-04T08:36:33.500Z,11888
2017-04-04T08:37:47.170Z,18944
2017-04-04T08:38:33.763Z,12476
2017-04-04T08:39:33.737Z,16544
2017-04-04T08:40:48.387Z,18496
2017-04-04T08:41:33.913Z,23392
2017-04-04T08:42:33.695Z,16080
2017-04-04T08:43:33.370Z,21152
2017-04-04T08:44:33.362Z,28032
2017-04-04T08:45:33.698Z,24352
2017-04-04T08:46:33.623Z,27744
2017-04-04T08:47:33.617Z,32896
2017-04-04T08:48:33.595Z,23008
2017-04-04T08:49:33.278Z,20224
2017-04-04T08:50:33.570Z,18048
2017-04-04T08:51:33.550Z,18080
2017-04-04T08:52:33.530Z,23232
2017-04-04T08:53:33.513Z,25280
2017-04-04T08:54:33.233Z,23264
2017-04-04T08:55:33.284Z,17068
2017-04-04T08:56:33.467Z,15528
2017-04-04T08:57:33.445Z,14856
2017-04-04T08:58:33.433Z,13316
2017-04-04T08:59:33.410Z,12420
2017-04-04T09:00:33.402Z,12336
2017-04-04T09:01:33.381Z,12012
2017-04-04T09:02:33.063Z,11296
2017-04-04T09:03:33.352Z,10516
2017-04-04T09:04:33.344Z,10104
2017-04-04T09:05:33.325Z,9656
2017-04-04T09:06:33.304Z,8960
2017-04-04T09:07:32.984Z,8148
2017-04-04T09:08:32.965Z,7964
2017-04-04T09:09:33.264Z,7592
2017-04-04T09:10:32.935Z,7124
2017-04-04T09:11:33.218Z,6792
2017-04-04T09:12:32.902Z,6516
2017-04-04T09:13:32.879Z,6136
2017-04-04T09:14:32.863Z,5736
2017-04-04T09:15:33.148Z,5600
2017-04-04T09:16:33.131Z,5800
2017-04-04T09:17:33.113Z,6144
2017-04-04T09:18:32.497Z,6156
2017-04-04T09:19:32.993Z,6620
2017-04-04T09:20:33.063Z,6924
2017-04-04T09:21:33.046Z,7400
2017-04-04T09:22:33.035Z,8248
2017-04-04T09:23:32.715Z,9420
2017-04-04T09:24:33.004Z,10856
2017-04-04T09:25:32.375Z,12364
2017-04-04T09:26:32.962Z,14528
2017-04-04T09:27:32.944Z,16576
2017-04-04T09:28:32.627Z,18336
2017-04-04T09:29:32.914Z,18496
2017-04-04T09:30:32.893Z,18944
2017-04-04T09:31:32.882Z,19168
2017-04-04T09:32:32.859Z,18752
2017-04-04T09:33:32.550Z,17724
2017-04-04T09:34:32.826Z,16816
2017-04-04T09:35:32.817Z,15828
2017-04-04T09:36:32.797Z,16524
2017-04-04T09:37:32.782Z,15976
2017-04-04T09:38:32.758Z,14680
2017-04-04T09:39:32.745Z,12468
2017-04-04T09:40:32.728Z,10452
2017-04-04T09:41:32.713Z,8836
2017-04-04T09:42:32.698Z,8100
2017-04-04T09:43:32.677Z,7788
2017-04-04T09:44:32.270Z,7668
2017-04-04T09:45:32.646Z,7736
2017-04-04T09:46:32.630Z,7820
2017-04-04T09:47:32.606Z,7728
2017-04-04T09:48:32.803Z,7632
2017-04-04T09:49:46.208Z,7724
2017-04-04T09:50:32.565Z,7860
2017-04-04T09:51:32.546Z,8068
2017-04-04T09:52:32.726Z,8124
2017-04-04T09:53:32.711Z,8012
2017-04-04T09:54:32.191Z,7948
2017-04-04T09:55:32.180Z,8076
2017-04-04T09:56:32.154Z,8128
2017-04-04T09:57:32.136Z,8184
2017-04-04T09:58:32.428Z,8148
2017-04-04T09:59:32.403Z,8204
2017-04-04T10:00:32.391Z,8332
2017-04-04T10:01:32.371Z,8324
2017-04-04T10:02:32.393Z,8208
2017-04-04T10:03:32.340Z,7916
2017-04-04T10:04:32.322Z,7656
2017-04-04T10:05:32.319Z,7632
2017-04-04T10:06:31.990Z,7800
2017-04-04T10:07:32.272Z,7964
2017-04-04T10:08:32.257Z,8032
2017-04-04T10:09:32.236Z,8088
2017-04-04T10:10:32.222Z,8128
2017-04-04T10:11:31.901Z,8112
2017-04-04T10:12:32.187Z,8104
2017-04-04T10:13:32.170Z,8264
2017-04-04T10:14:32.149Z,8492
2017-04-04T10:15:32.139Z,8632
2017-04-04T10:16:32.121Z,8732
2017-04-04T10:17:32.315Z,8852
2017-04-04T10:18:32.080Z,9096
2017-04-04T10:19:32.073Z,9208
2017-04-04T10:20:32.058Z,9272
2017-04-04T10:21:32.032Z,9360
2017-04-04T10:22:32.259Z,9436
2017-04-04T10:23:32.002Z,9604
2017-04-04T10:24:31.987Z,9772
2017-04-04T10:25:31.969Z,9880
2017-04-04T10:26:32.159Z,9980
2017-04-04T10:27:31.641Z,10084
2017-04-04T10:28:31.924Z,10212
2017-04-04T10:29:31.911Z,10320
2017-04-04T10:30:31.591Z,10448
2017-04-04T10:31:31.577Z,10348
2017-04-04T10:32:31.854Z,10144
2017-04-04T10:33:31.836Z,10068
2017-04-04T10:34:31.819Z,10108
2017-04-04T10:35:31.806Z,9984
2017-04-04T10:36:31.788Z,9900
2017-04-04T10:37:31.774Z,10100
2017-04-04T10:38:31.755Z,10216
2017-04-04T10:39:31.738Z,10244
2017-04-04T10:40:31.720Z,10236
2017-04-04T10:41:31.731Z,10044
2017-04-04T10:42:31.683Z,9916
2017-04-04T10:43:31.771Z,9696
2017-04-04T10:44:31.658Z,9648
2017-04-04T10:45:31.685Z,9516
2017-04-04T10:46:31.619Z,9632
2017-04-04T10:47:31.604Z,9608
2017-04-04T10:48:31.584Z,9664
2017-04-04T10:49:31.280Z,9976
2017-04-04T10:50:31.544Z,10176
2017-04-04T10:51:31.232Z,10168
2017-04-04T10:52:31.212Z,10248
2017-04-04T10:53:31.294Z,10144
2017-04-04T10:54:31.477Z,10240
2017-04-04T10:55:31.459Z,10552
2017-04-04T10:56:31.140Z,10880
2017-04-04T10:57:31.460Z,10860
2017-04-04T10:58:31.402Z,11076
2017-04-04T10:59:31.383Z,11076
2017-04-04T11:00:31.369Z,11128
2017-04-04T11:01:31.345Z,11252
2017-04-04T11:02:31.025Z,11796
2017-04-04T11:03:31.318Z,12464
2017-04-04T11:04:31.295Z,12288
2017-04-04T11:05:31.281Z,12244
2017-04-04T11:06:31.254Z,12472
2017-04-04T11:07:31.235Z,13296
2017-04-04T11:08:31.220Z,13448
2017-04-04T11:09:31.203Z,13720
2017-04-04T11:10:31.183Z,13700
2017-04-04T11:11:31.164Z,13324
2017-04-04T11:12:31.143Z,12548
2017-04-04T11:13:31.125Z,12120
2017-04-04T11:14:31.105Z,12056
2017-04-04T11:15:31.109Z,11712
2017-04-04T11:16:31.073Z,11628
2017-04-04T11:17:31.049Z,11740
2017-04-04T11:18:31.030Z,11684
2017-04-04T11:19:31.016Z,11940
2017-04-04T11:20:31.033Z,12132
2017-04-04T11:21:30.973Z,12372
2017-04-04T11:22:30.956Z,12556
2017-04-04T11:23:30.942Z,12544
2017-04-04T11:24:30.911Z,12764
2017-04-04T11:25:30.894Z,13384
2017-04-04T11:26:30.875Z,13992
2017-04-04T11:27:30.555Z,13732
2017-04-04T11:28:30.843Z,13228
2017-04-04T11:29:30.816Z,13316
2017-04-04T11:30:30.495Z,13276
2017-04-04T11:31:30.771Z,13364
2017-04-04T11:32:30.755Z,13952
2017-04-04T11:33:30.735Z,14688
2017-04-04T11:34:30.713Z,15044
2017-04-04T11:35:30.694Z,15416
2017-04-04T11:36:30.368Z,15620
2017-04-04T11:37:30.654Z,15216
2017-04-04T11:38:30.631Z,15260
2017-04-04T11:39:30.612Z,15020
2017-04-04T11:40:30.588Z,15516
2017-04-04T11:41:30.568Z,15952
2017-04-04T11:42:30.245Z,15696
2017-04-04T11:43:30.231Z,16292
2017-04-04T11:44:30.509Z,17016
2017-04-04T11:45:30.484Z,18080
2017-04-04T11:46:30.466Z,18240
2017-04-04T11:47:30.442Z,17020
2017-04-04T11:48:30.428Z,16736
2017-04-04T11:49:30.402Z,17324
2017-04-04T11:50:30.378Z,17888
2017-04-04T11:51:30.360Z,18400
2017-04-04T11:52:30.335Z,18432
2017-04-04T11:53:30.017Z,18592
2017-04-04T11:54:30.307Z,19488
2017-04-04T11:55:29.977Z,19616
2017-04-04T11:56:29.956Z,18976
2017-04-04T11:57:30.239Z,18848
2017-04-04T11:58:29.915Z,19040
2017-04-04T11:59:29.926Z,18592
2017-04-04T12:00:29.878Z,18400
2017-04-04T12:01:29.853Z,19552
2017-04-04T12:02:29.829Z,20832
2017-04-04T12:03:29.810Z,20896
2017-04-04T12:04:30.098Z,19136
2017-04-04T12:05:30.066Z,17044
2017-04-04T12:06:29.752Z,16304
2017-04-04T12:07:29.731Z,16692
2017-04-04T12:08:30.006Z,17080
2017-04-04T12:09:29.995Z,17228
2017-04-04T12:10:29.974Z,16908
2017-04-04T12:11:29.950Z,16924
2017-04-04T12:12:29.624Z,16856
2017-04-04T12:13:29.906Z,15848
2017-04-04T12:14:29.887Z,14804
2017-04-04T12:15:29.862Z,15472
2017-04-04T12:16:29.852Z,17152
2017-04-04T12:17:29.532Z,17696
2017-04-04T12:18:29.802Z,17112
2017-04-04T12:19:29.785Z,16816
2017-04-04T12:20:29.768Z,16444
2017-04-04T12:21:29.783Z,15796
2017-04-04T12:22:29.721Z,15644
2017-04-04T12:23:29.701Z,15736
2017-04-04T12:24:29.682Z,15728
2017-04-04T12:25:29.660Z,15956
2017-04-04T12:26:29.639Z,16460
2017-04-04T12:27:29.323Z,16616
2017-04-04T12:28:29.600Z,16396
2017-04-04T12:29:29.580Z,15792
2017-04-04T12:30:29.558Z,16320
2017-04-04T12:31:29.547Z,18464
2017-04-04T12:32:29.525Z,21152
2017-04-04T12:33:29.498Z,23648
2017-04-04T12:34:29.481Z,23936
2017-04-04T12:35:29.464Z,23168
2017-04-04T12:36:29.439Z,24544
2017-04-04T12:37:29.463Z,25152
2017-04-04T12:38:29.399Z,19968
2017-04-04T12:39:29.390Z,18944
2017-04-04T12:40:29.366Z,18400
2017-04-04T12:41:29.339Z,17824
2017-04-04T12:42:29.327Z,16108
2017-04-04T12:43:29.304Z,15304
2017-04-04T12:44:29.293Z,15744
2017-04-04T12:45:29.268Z,15828
2017-04-04T12:46:29.246Z,16004
2017-04-04T12:47:29.226Z,16596
2017-04-04T12:48:28.910Z,16800
2017-04-04T12:49:28.892Z,17856
2017-04-04T12:50:28.868Z,18688
2017-04-04T12:51:29.155Z,20000
2017-04-04T12:52:28.838Z,23968
2017-04-04T12:53:29.113Z,24512
2017-04-04T12:54:29.133Z,20096
2017-04-04T12:55:28.778Z,17888
2017-04-04T12:56:28.767Z,16228
2017-04-04T12:57:28.736Z,15972
2017-04-04T12:58:29.024Z,16696
2017-04-04T12:59:28.699Z,16816
2017-04-04T13:00:28.676Z,17856
2017-04-04T13:01:28.668Z,18304
2017-04-04T13:02:28.637Z,17824
2017-04-04T13:03:28.618Z,17792
2017-04-04T13:04:28.945Z,15204
2017-04-04T13:05:28.894Z,13592
2017-04-04T13:06:28.868Z,13848
2017-04-04T13:07:28.851Z,14804
2017-04-04T13:08:28.835Z,15484
2017-04-04T13:09:28.811Z,16692
2017-04-04T13:10:28.799Z,16288
2017-04-04T13:11:28.781Z,14632
2017-04-04T13:12:28.455Z,13464
2017-04-04T13:13:28.739Z,13288
2017-04-04T13:14:28.718Z,12388
2017-04-04T13:15:28.707Z,12688
2017-04-04T13:16:28.687Z,13500
2017-04-04T13:17:28.362Z,13808
2017-04-04T13:18:28.648Z,13404
2017-04-04T13:19:28.673Z,13864
2017-04-04T13:20:28.609Z,13604
2017-04-04T13:21:28.599Z,13764
2017-04-04T13:22:28.581Z,12980
2017-04-04T13:23:28.572Z,12364
2017-04-04T13:24:28.558Z,12244
2017-04-04T13:25:28.523Z,12980
2017-04-04T13:26:28.508Z,13504
2017-04-04T13:27:28.486Z,13052
2017-04-04T13:28:28.467Z,12924
2017-04-04T13:29:27.545Z,12324
2017-04-04T13:30:28.436Z,12480
2017-04-04T13:31:28.417Z,13016
2017-04-04T13:32:28.099Z,13100
2017-04-04T13:33:28.381Z,13872
2017-04-04T13:34:28.377Z,13664
2017-04-04T13:35:28.343Z,13080
2017-04-04T13:36:28.034Z,12704
2017-04-04T13:37:28.334Z,12216
2017-04-04T13:38:28.301Z,12180
2017-04-04T13:39:28.318Z,13140
2017-04-04T13:40:28.276Z,13772
2017-04-04T13:41:27.937Z,14068
2017-04-04T13:42:28.223Z,14356
2017-04-04T13:43:27.897Z,13732
2017-04-04T13:44:28.188Z,13056
2017-04-04T13:45:28.169Z,12668
2017-04-04T13:46:28.154Z,12252
2017-04-04T13:47:28.129Z,12028
2017-04-04T13:48:28.117Z,12172
2017-04-04T13:49:28.092Z,12084
2017-04-04T13:50:28.113Z,12424
2017-04-04T13:51:28.062Z,12316
2017-04-04T13:52:28.045Z,12076
2017-04-04T13:53:28.016Z,12360